Goldboro, Canada
Current Conditions -  °F | °C
As of 4:00 PM on Sunday 21 Dec 2014 (Local Time) from CYPD Reporting Station
Overcast Overcast  
Wind Chill: 28°   Ceiling: 2100
Heat Index: 28°   Visibility: 9mi
Dew Point: 21°   Wind: 2mph
Humidity: 74%   Direction: NA
Pressure: 30.35"   Gusts: NA
Location:  45.18°N, 61.65°W
Report Text: CYPD 212000Z AUTO VRB02KT 9SM OVC021 M02/M06 A3035 RMK SLP282
Loading
Personal Weather Stations






























Interactive Weather Map New forecast layout! Learn more

10-Day Weather Forecast

Advertisements
Track Severe Weather on mobile